createdAt,value
2019-01-08T00:01:32.745Z,30.67
2019-01-08T00:04:02.683Z,33.00
2019-01-08T00:06:32.893Z,32.57
2019-01-08T00:09:03.125Z,32.23
2019-01-08T00:11:33.885Z,32.57
2019-01-08T00:14:05.745Z,31.10
2019-01-08T00:16:35.901Z,31.57
2019-01-08T00:19:05.957Z,31.03
2019-01-08T00:21:35.980Z,33.33
2019-01-08T00:24:06.237Z,30.83
2019-01-08T00:26:36.265Z,32.27
2019-01-08T00:29:06.361Z,32.20
2019-01-08T00:31:36.388Z,30.77
2019-01-08T00:34:06.500Z,33.27
2019-01-08T00:36:36.520Z,32.33
2019-01-08T00:39:07.672Z,32.67
2019-01-08T00:41:37.673Z,31.07
2019-01-08T00:44:07.761Z,31.57
2019-01-08T00:46:37.761Z,33.70
2019-01-08T00:49:07.985Z,32.63
2019-01-08T00:51:38.092Z,31.77
2019-01-08T00:54:08.199Z,30.17
2019-01-08T00:56:38.198Z,30.57
2019-01-08T00:59:08.474Z,32.70
2019-01-08T01:01:38.667Z,31.80
2019-01-08T01:04:08.808Z,30.10
2019-01-08T01:06:38.761Z,27.03
2019-01-08T01:09:09.029Z,30.07
2019-01-08T01:11:39.273Z,32.03
2019-01-08T01:14:09.357Z,29.00
2019-01-08T01:16:39.244Z,29.73
2019-01-08T01:19:09.437Z,30.30
2019-01-08T01:21:39.449Z,29.50
2019-01-08T01:24:09.517Z,26.57
2019-01-08T01:26:39.528Z,29.50
2019-01-08T01:29:09.438Z,32.70
2019-01-08T01:31:39.351Z,27.50
2019-01-08T01:34:09.231Z,27.13
2019-01-08T01:36:39.128Z,27.93
2019-01-08T01:39:09.209Z,27.50
2019-01-08T01:41:39.206Z,26.97
2019-01-08T01:44:09.162Z,26.73
2019-01-08T01:46:39.268Z,25.93
2019-01-08T01:49:09.242Z,25.13
2019-01-08T01:51:39.228Z,27.27
2019-01-08T01:54:09.284Z,26.70
2019-01-08T01:56:40.820Z,28.37
2019-01-08T01:59:12.847Z,24.77
2019-01-08T02:01:42.841Z,27.53
2019-01-08T02:04:12.971Z,25.50
2019-01-08T02:06:43.084Z,25.90
2019-01-08T02:09:13.053Z,26.50
2019-01-08T02:11:43.147Z,25.60
2019-01-08T02:14:13.165Z,23.93
2019-01-08T02:16:45.904Z,25.13
2019-01-08T02:19:15.864Z,23.07
2019-01-08T02:21:45.981Z,26.20
2019-01-08T02:24:15.976Z,25.47
2019-01-08T02:26:45.980Z,25.03
2019-01-08T02:29:16.712Z,23.40
2019-01-08T02:31:46.889Z,24.87
2019-01-08T02:34:16.874Z,25.13
2019-01-08T02:36:46.998Z,25.43
2019-01-08T02:39:17.149Z,22.63
2019-01-08T02:41:47.300Z,25.70
2019-01-08T02:44:17.245Z,24.20
2019-01-08T02:46:48.960Z,25.83
2019-01-08T02:49:19.011Z,23.63
2019-01-08T02:51:49.052Z,25.10
2019-01-08T02:54:19.230Z,24.67
2019-01-08T02:56:52.245Z,23.40
2019-01-08T02:59:25.159Z,24.20
2019-01-08T03:01:53.849Z,21.83
2019-01-08T03:04:23.849Z,23.23
2019-01-08T03:06:53.810Z,22.27
2019-01-08T03:09:23.770Z,19.90
2019-01-08T03:11:53.890Z,20.83
2019-01-08T03:14:24.223Z,21.63
2019-01-08T03:16:54.181Z,22.80
2019-01-08T03:19:24.093Z,20.43
2019-01-08T03:21:54.063Z,21.87
2019-01-08T03:24:24.040Z,20.90
2019-01-08T03:26:54.094Z,21.67
2019-01-08T03:29:24.079Z,21.87
2019-01-08T03:31:53.981Z,19.53
2019-01-08T03:34:23.927Z,22.67
2019-01-08T03:36:53.845Z,19.60
2019-01-08T03:39:23.768Z,21.53
2019-01-08T03:41:54.169Z,23.63
2019-01-08T03:44:24.249Z,22.40
2019-01-08T03:46:54.200Z,21.43
2019-01-08T03:49:24.228Z,23.13
2019-01-08T03:51:54.308Z,22.63
2019-01-08T03:54:24.298Z,23.00
2019-01-08T03:56:54.260Z,22.83
2019-01-08T03:59:24.354Z,23.10
2019-01-08T04:01:54.320Z,19.73
2019-01-08T04:04:24.262Z,23.20
2019-01-08T04:06:54.173Z,23.27
2019-01-08T04:09:24.042Z,21.67
2019-01-08T04:11:53.942Z,23.70
2019-01-08T04:14:23.823Z,23.83
2019-01-08T04:16:53.724Z,21.77
2019-01-08T04:19:23.677Z,22.37
2019-01-08T04:21:53.569Z,22.23
2019-01-08T04:24:23.531Z,25.37
2019-01-08T04:26:53.433Z,24.43
2019-01-08T04:29:23.379Z,23.80
2019-01-08T04:31:53.268Z,22.63
2019-01-08T04:34:23.658Z,23.57
2019-01-08T04:36:53.535Z,22.20
2019-01-08T04:39:24.968Z,22.87
2019-01-08T04:41:55.550Z,23.90
2019-01-08T04:44:25.421Z,26.53
2019-01-08T04:46:56.321Z,23.77
2019-01-08T04:49:26.220Z,26.27
2019-01-08T04:51:56.171Z,22.50
2019-01-08T04:54:26.046Z,23.53
2019-01-08T04:56:57.846Z,23.10
2019-01-08T04:59:27.869Z,26.17
2019-01-08T05:01:57.780Z,24.77
2019-01-08T05:04:27.639Z,25.80
2019-01-08T05:06:57.623Z,27.33
2019-01-08T05:09:27.536Z,24.93
2019-01-08T05:11:57.482Z,24.67
2019-01-08T05:14:27.373Z,22.87
2019-01-08T05:16:57.278Z,25.17
2019-01-08T05:19:27.182Z,25.03
2019-01-08T05:21:58.975Z,25.43
2019-01-08T05:24:28.859Z,24.17
2019-01-08T05:26:58.772Z,25.53
2019-01-08T05:29:28.613Z,24.23
2019-01-08T05:31:58.514Z,25.47
2019-01-08T05:34:28.406Z,24.37
2019-01-08T05:36:58.341Z,25.07
2019-01-08T05:39:28.461Z,25.23
2019-01-08T05:41:59.970Z,24.93
2019-01-08T05:44:29.943Z,24.93
2019-01-08T05:46:59.864Z,26.37
2019-01-08T05:49:29.754Z,25.30
2019-01-08T05:52:00.628Z,24.67
2019-01-08T05:54:30.639Z,23.63
2019-01-08T05:57:00.622Z,25.23
2019-01-08T05:59:30.661Z,26.77
2019-01-08T06:02:00.644Z,24.07
2019-01-08T06:04:30.567Z,24.40
2019-01-08T06:07:00.564Z,24.73
2019-01-08T06:09:30.444Z,24.73
2019-01-08T06:12:01.941Z,24.83
2019-01-08T06:14:31.914Z,24.77
2019-01-08T06:17:01.809Z,25.87
2019-01-08T06:19:31.768Z,25.90
2019-01-08T06:22:01.923Z,26.57
2019-01-08T06:24:31.968Z,25.50
2019-01-08T06:27:01.930Z,20.03
2019-01-08T06:29:31.965Z,24.90
2019-01-08T06:32:01.848Z,26.60
2019-01-08T06:34:31.768Z,23.30
2019-01-08T06:37:01.756Z,26.87
2019-01-08T06:39:31.755Z,27.53
2019-01-08T06:42:01.769Z,27.83
2019-01-08T06:44:31.828Z,27.43
2019-01-08T06:47:03.016Z,28.33
2019-01-08T06:49:32.964Z,27.00
2019-01-08T06:52:02.937Z,27.73
2019-01-08T06:54:32.911Z,27.17
2019-01-08T06:57:02.956Z,28.83
2019-01-08T06:59:33.039Z,28.77
2019-01-08T07:02:03.215Z,29.10
2019-01-08T07:04:33.177Z,28.37
2019-01-08T07:07:03.395Z,28.83
2019-01-08T07:09:33.435Z,24.93
2019-01-08T07:12:03.618Z,35.90
2019-01-08T07:14:33.689Z,31.40
2019-01-08T07:17:03.567Z,22.67
2019-01-08T07:19:33.797Z,28.83
2019-01-08T07:22:03.913Z,28.07
2019-01-08T07:24:33.996Z,26.67
2019-01-08T07:27:04.205Z,28.03
2019-01-08T07:29:34.420Z,28.07
2019-01-08T07:32:04.461Z,28.40
2019-01-08T07:34:34.475Z,29.30
2019-01-08T07:37:04.552Z,31.60
2019-01-08T07:39:34.510Z,28.70
2019-01-08T07:42:04.617Z,27.63
2019-01-08T07:44:46.526Z,27.70
2019-01-08T07:47:17.927Z,32.10
2019-01-08T07:49:48.329Z,32.20
2019-01-08T07:52:18.755Z,30.57
2019-01-08T07:54:48.747Z,29.47
2019-01-08T07:57:20.717Z,29.37
2019-01-08T07:59:50.831Z,27.30
2019-01-08T08:02:20.848Z,30.83
2019-01-08T08:04:50.925Z,30.27
2019-01-08T08:07:20.941Z,32.60
2019-01-08T08:09:50.935Z,28.37
2019-01-08T08:12:20.895Z,32.17
2019-01-08T08:14:51.062Z,28.93
2019-01-08T08:17:21.015Z,31.13
2019-01-08T08:19:51.202Z,22.23
2019-01-08T08:22:21.337Z,29.43
2019-01-08T08:24:51.316Z,29.83
2019-01-08T08:27:21.412Z,52.33
2019-01-08T08:29:51.460Z,35.27
2019-01-08T08:32:21.695Z,29.53
2019-01-08T08:34:51.880Z,27.80
2019-01-08T08:37:21.936Z,30.93
2019-01-08T08:39:52.032Z,30.17
2019-01-08T08:42:22.076Z,32.03
2019-01-08T08:44:52.031Z,31.77
2019-01-08T08:47:22.003Z,32.07
2019-01-08T08:49:52.035Z,30.90
2019-01-08T08:52:22.102Z,34.03
2019-01-08T08:54:52.112Z,33.97
2019-01-08T08:57:22.006Z,30.50
2019-01-08T08:59:51.963Z,28.57
2019-01-08T09:02:21.976Z,31.57
2019-01-08T09:04:53.055Z,29.77
2019-01-08T09:07:23.117Z,32.17
2019-01-08T09:09:53.184Z,29.60
2019-01-08T09:12:23.298Z,28.70
2019-01-08T09:14:53.244Z,33.93
2019-01-08T09:17:23.372Z,30.87
2019-01-08T09:19:53.819Z,30.87
2019-01-08T09:22:23.857Z,32.30
2019-01-08T09:24:53.801Z,30.07
2019-01-08T09:27:23.902Z,33.90
2019-01-08T09:29:54.139Z,33.00
2019-01-08T09:32:24.707Z,33.93
2019-01-08T09:34:54.791Z,31.40
2019-01-08T09:37:24.827Z,31.90
2019-01-08T09:39:55.474Z,28.87
2019-01-08T09:42:26.205Z,33.07
2019-01-08T09:45:01.344Z,30.33
2019-01-08T09:47:34.526Z,30.43
2019-01-08T09:50:08.775Z,30.73
2019-01-08T09:52:39.561Z,31.17
2019-01-08T09:55:09.733Z,29.10
2019-01-08T09:57:40.488Z,34.87
2019-01-08T10:00:10.958Z,31.73
2019-01-08T10:02:41.016Z,32.90
2019-01-08T10:05:11.135Z,33.23
2019-01-08T10:07:41.147Z,32.43
2019-01-08T10:10:11.170Z,30.67
2019-01-08T10:12:41.216Z,31.87
2019-01-08T10:15:11.216Z,30.57
2019-01-08T10:17:41.250Z,30.93
2019-01-08T10:20:11.333Z,29.17
2019-01-08T10:22:41.308Z,31.77
2019-01-08T10:25:11.374Z,30.00
2019-01-08T10:27:41.367Z,32.57
2019-01-08T10:30:11.708Z,31.20
2019-01-08T10:32:41.727Z,31.33
2019-01-08T10:35:11.789Z,30.90
2019-01-08T10:37:41.870Z,29.90
2019-01-08T10:40:12.075Z,32.17
2019-01-08T10:42:42.190Z,30.93
2019-01-08T10:45:12.411Z,31.37
2019-01-08T10:47:42.624Z,31.87
2019-01-08T10:50:12.926Z,29.47
2019-01-08T10:52:43.180Z,32.40
2019-01-08T10:55:13.307Z,30.73
2019-01-08T10:57:43.358Z,29.93
2019-01-08T11:00:13.774Z,33.27
2019-01-08T11:02:43.897Z,28.77
2019-01-08T11:05:13.945Z,32.33
2019-01-08T11:07:43.989Z,32.10
2019-01-08T11:10:14.293Z,33.67
2019-01-08T11:12:44.253Z,30.73
2019-01-08T11:15:15.995Z,30.33
2019-01-08T11:17:45.893Z,30.00
2019-01-08T11:20:15.923Z,27.63
2019-01-08T11:22:46.064Z,29.83
2019-01-08T11:25:16.114Z,29.07
2019-01-08T11:27:46.233Z,29.03
2019-01-08T11:30:16.267Z,29.90
2019-01-08T11:32:46.358Z,29.63
2019-01-08T11:35:16.335Z,29.33
2019-01-08T11:37:46.349Z,28.77
2019-01-08T11:40:18.080Z,31.20
2019-01-08T11:42:48.304Z,31.53
2019-01-08T11:45:18.348Z,28.87
2019-01-08T11:47:48.322Z,28.50
2019-01-08T11:50:18.354Z,30.70
2019-01-08T11:52:48.405Z,30.33
2019-01-08T11:55:18.434Z,27.87
2019-01-08T11:57:50.149Z,29.80
2019-01-08T12:00:20.272Z,29.63
2019-01-08T12:02:50.248Z,27.90
2019-01-08T12:05:20.243Z,28.73
2019-01-08T12:07:50.274Z,29.10
2019-01-08T12:10:20.298Z,29.50
2019-01-08T12:12:50.486Z,29.63
2019-01-08T12:15:20.594Z,28.87
2019-01-08T12:17:50.662Z,29.93
2019-01-08T12:20:22.712Z,28.63
2019-01-08T12:22:53.784Z,28.93
2019-01-08T12:25:23.921Z,27.87
2019-01-08T12:27:53.928Z,29.43
2019-01-08T12:30:25.196Z,29.10
2019-01-08T12:32:55.401Z,28.70
2019-01-08T12:35:25.437Z,27.10
2019-01-08T12:37:55.539Z,27.73
2019-01-08T12:40:27.124Z,28.67
2019-01-08T12:42:59.368Z,26.03
2019-01-08T12:45:29.446Z,28.67
2019-01-08T12:47:59.420Z,26.67
2019-01-08T12:50:29.526Z,26.20
2019-01-08T12:52:59.614Z,27.33
2019-01-08T12:55:29.682Z,27.97
2019-01-08T12:57:59.667Z,26.50
2019-01-08T13:00:29.769Z,29.47
2019-01-08T13:03:00.057Z,27.67
2019-01-08T13:05:30.137Z,27.80
2019-01-08T13:08:00.200Z,27.50
2019-01-08T13:10:32.007Z,28.10
2019-01-08T13:13:02.025Z,25.83
2019-01-08T13:15:32.110Z,28.43
2019-01-08T13:18:02.173Z,28.00
2019-01-08T13:20:34.109Z,29.43
2019-01-08T13:23:04.229Z,28.77
2019-01-08T13:25:34.315Z,28.37
2019-01-08T13:28:04.489Z,27.33
2019-01-08T13:30:34.559Z,28.47
2019-01-08T13:33:04.627Z,26.70
2019-01-08T13:35:34.825Z,28.10
2019-01-08T13:38:04.943Z,26.77
2019-01-08T13:40:35.308Z,28.37
2019-01-08T13:43:05.505Z,28.20
2019-01-08T13:45:35.563Z,30.33
2019-01-08T13:48:05.588Z,27.27
2019-01-08T13:50:35.596Z,27.67
2019-01-08T13:53:05.954Z,26.73
2019-01-08T13:55:37.127Z,25.90
2019-01-08T13:58:07.235Z,28.60
2019-01-08T14:00:37.332Z,27.60
2019-01-08T14:03:07.593Z,27.33
2019-01-08T14:05:37.796Z,25.43
2019-01-08T14:08:08.939Z,26.90
2019-01-08T14:10:39.141Z,25.07
2019-01-08T14:13:09.221Z,25.20
2019-01-08T14:15:39.283Z,26.70
2019-01-08T14:18:09.319Z,26.17
2019-01-08T14:20:41.758Z,27.67
2019-01-08T14:23:11.786Z,25.87
2019-01-08T14:25:42.043Z,26.67
2019-01-08T14:28:12.206Z,26.97
2019-01-08T14:30:42.437Z,27.10
2019-01-08T14:33:12.485Z,27.50
2019-01-08T14:35:42.703Z,25.70
2019-01-08T14:38:12.698Z,26.90
2019-01-08T14:40:43.911Z,25.73
2019-01-08T14:43:14.486Z,24.90
2019-01-08T14:45:44.711Z,27.03
2019-01-08T14:48:14.903Z,26.47
2019-01-08T14:50:45.232Z,26.97
2019-01-08T14:53:18.117Z,26.27
2019-01-08T14:55:48.217Z,25.97
2019-01-08T14:58:18.537Z,27.17
2019-01-08T15:00:48.766Z,26.60
2019-01-08T15:03:18.956Z,25.33
2019-01-08T15:05:49.247Z,27.93
2019-01-08T15:08:19.347Z,27.43
2019-01-08T15:10:49.576Z,26.40
2019-01-08T15:13:19.858Z,29.13
2019-01-08T15:15:50.107Z,28.60
2019-01-08T15:18:20.691Z,29.57
2019-01-08T15:20:50.995Z,29.97
2019-01-08T15:23:21.208Z,27.43
2019-01-08T15:25:51.416Z,28.23
2019-01-08T15:28:21.526Z,28.17
2019-01-08T15:30:51.663Z,26.97
2019-01-08T15:33:21.717Z,27.97
2019-01-08T15:35:51.949Z,27.17
2019-01-08T15:38:24.359Z,28.60
2019-01-08T15:40:54.305Z,26.97
2019-01-08T15:43:24.344Z,28.20
2019-01-08T15:45:54.579Z,27.80
2019-01-08T15:48:25.197Z,26.43
2019-01-08T15:50:55.290Z,26.60
2019-01-08T15:53:25.349Z,29.13
2019-01-08T15:55:55.630Z,29.20
2019-01-08T15:58:25.883Z,28.63
2019-01-08T16:00:59.590Z,29.93
2019-01-08T16:03:29.691Z,27.27
2019-01-08T16:06:00.232Z,27.93
2019-01-08T16:08:30.427Z,28.67
2019-01-08T16:11:02.163Z,27.87
2019-01-08T16:13:35.284Z,27.43
2019-01-08T16:16:05.549Z,30.30
2019-01-08T16:18:35.600Z,28.33
2019-01-08T16:21:06.205Z,29.03
2019-01-08T16:23:36.558Z,29.70
2019-01-08T16:26:06.580Z,29.93
2019-01-08T16:28:36.695Z,29.63
2019-01-08T16:31:06.899Z,29.63
2019-01-08T16:33:36.901Z,28.50
2019-01-08T16:36:07.133Z,27.50
2019-01-08T16:38:38.089Z,28.60
2019-01-08T16:41:08.231Z,30.47
2019-01-08T16:43:38.430Z,29.83
2019-01-08T16:46:09.955Z,30.40
2019-01-08T16:48:40.179Z,30.47
2019-01-08T16:51:17.238Z,31.33
2019-01-08T16:53:53.815Z,29.30
2019-01-08T16:56:32.859Z,32.27
2019-01-08T16:59:12.940Z,30.27
2019-01-08T17:01:48.900Z,31.23
2019-01-08T17:04:36.650Z,32.10
2019-01-08T17:07:23.674Z,30.10
2019-01-08T17:10:12.163Z,30.27
2019-01-08T17:13:02.003Z,30.17
2019-01-08T17:15:40.401Z,29.67
2019-01-08T17:18:29.122Z,29.63
2019-01-08T17:21:23.314Z,28.90
2019-01-08T17:24:15.611Z,30.33
2019-01-08T17:27:03.369Z,29.60
2019-01-08T17:29:54.909Z,29.43
2019-01-08T17:32:39.467Z,29.93
2019-01-08T17:35:23.741Z,30.10
2019-01-08T17:38:22.867Z,30.13
2019-01-08T17:41:09.029Z,28.67
2019-01-08T17:43:56.016Z,29.07
2019-01-08T17:46:47.140Z,28.67
2019-01-08T17:49:35.742Z,32.20
2019-01-08T17:52:33.276Z,31.67
2019-01-08T17:55:17.398Z,31.93
2019-01-08T17:57:54.595Z,31.27
2019-01-08T18:00:27.851Z,29.97
2019-01-08T18:02:58.319Z,29.60
2019-01-08T18:05:28.565Z,32.77
2019-01-08T18:07:59.050Z,32.60
2019-01-08T18:10:29.357Z,31.27
2019-01-08T18:13:01.260Z,31.70
2019-01-08T18:15:32.058Z,34.47
2019-01-08T18:18:05.116Z,33.73
2019-01-08T18:20:37.577Z,31.30
2019-01-08T18:23:07.777Z,29.73
2019-01-08T18:25:37.995Z,33.90
2019-01-08T18:28:09.635Z,32.17
2019-01-08T18:30:40.820Z,30.97
2019-01-08T18:33:12.230Z,31.33
2019-01-08T18:35:43.772Z,30.30
2019-01-08T18:38:15.685Z,30.73
2019-01-08T18:40:53.050Z,30.63
2019-01-08T18:43:27.558Z,30.67
2019-01-08T18:45:58.788Z,33.60
2019-01-08T18:48:32.350Z,33.67
2019-01-08T18:51:03.781Z,36.00
2019-01-08T18:53:38.225Z,34.47
2019-01-08T18:56:11.032Z,34.60
2019-01-08T18:58:48.622Z,33.13
2019-01-08T19:01:19.398Z,31.27
2019-01-08T19:03:50.493Z,33.27
2019-01-08T19:06:20.679Z,33.17
2019-01-08T19:09:22.922Z,32.47
2019-01-08T19:11:53.458Z,32.87
2019-01-08T19:14:25.897Z,29.57
2019-01-08T19:16:57.222Z,33.93
2019-01-08T19:19:27.394Z,31.60
2019-01-08T19:21:57.469Z,30.27
2019-01-08T19:24:27.569Z,30.77
2019-01-08T19:26:58.605Z,28.20
2019-01-08T19:29:29.078Z,29.63
2019-01-08T19:31:59.235Z,29.73
2019-01-08T19:34:29.417Z,28.93
2019-01-08T19:36:59.704Z,31.90
2019-01-08T19:39:29.740Z,31.07
2019-01-08T19:42:00.039Z,31.83
2019-01-08T19:44:29.986Z,32.03
2019-01-08T19:47:00.154Z,31.90
2019-01-08T19:49:30.148Z,30.50
2019-01-08T19:52:00.132Z,31.67
2019-01-08T19:54:30.460Z,32.23
2019-01-08T19:57:19.265Z,32.73
2019-01-08T19:59:49.326Z,31.40
2019-01-08T20:02:19.369Z,31.83
2019-01-08T20:04:49.520Z,31.77
2019-01-08T20:07:19.686Z,32.30
2019-01-08T20:09:49.862Z,32.63
2019-01-08T20:12:20.005Z,32.93
2019-01-08T20:14:50.256Z,30.30
2019-01-08T20:17:20.519Z,32.40
2019-01-08T20:19:50.667Z,29.57
2019-01-08T20:22:20.805Z,32.80
2019-01-08T20:24:50.977Z,32.67
2019-01-08T20:27:21.156Z,33.07
2019-01-08T20:29:51.128Z,33.23
2019-01-08T20:32:22.195Z,32.97
2019-01-08T20:34:52.114Z,33.13
2019-01-08T20:37:29.496Z,32.60
2019-01-08T20:40:00.016Z,34.10
2019-01-08T20:42:31.844Z,32.97
2019-01-08T20:45:01.968Z,31.63
2019-01-08T20:47:32.369Z,33.63
2019-01-08T20:50:02.473Z,32.53
2019-01-08T20:52:32.677Z,33.67
2019-01-08T20:55:02.675Z,35.20
2019-01-08T20:57:32.809Z,34.90
2019-01-08T21:00:03.195Z,34.73
2019-01-08T21:02:34.785Z,34.77
2019-01-08T21:05:04.982Z,35.27
2019-01-08T21:07:35.254Z,34.70
2019-01-08T21:10:05.867Z,34.27
2019-01-08T21:12:36.582Z,31.93
2019-01-08T21:15:06.985Z,31.27
2019-01-08T21:17:37.076Z,33.90
2019-01-08T21:20:08.961Z,33.27
2019-01-08T21:22:39.590Z,32.57
2019-01-08T21:25:11.046Z,33.37
2019-01-08T21:27:41.114Z,34.27
2019-01-08T21:30:11.390Z,35.17
2019-01-08T21:32:41.498Z,33.40
2019-01-08T21:35:11.596Z,31.37
2019-01-08T21:37:42.056Z,34.33
2019-01-08T21:40:13.837Z,34.50
2019-01-08T21:42:50.493Z,35.20
2019-01-08T21:45:21.682Z,34.60
2019-01-08T21:47:51.762Z,32.27
2019-01-08T21:50:21.815Z,32.83
2019-01-08T21:52:51.862Z,31.43
2019-01-08T21:55:23.437Z,30.80
2019-01-08T21:57:53.648Z,31.53
2019-01-08T22:00:24.595Z,32.67
2019-01-08T22:02:55.146Z,32.07
2019-01-08T22:05:25.277Z,30.17
2019-01-08T22:07:55.371Z,31.77
2019-01-08T22:10:25.611Z,30.00
2019-01-08T22:12:55.944Z,31.10
2019-01-08T22:15:26.082Z,31.93
2019-01-08T22:17:56.348Z,32.60
2019-01-08T22:20:26.477Z,30.63
2019-01-08T22:22:56.516Z,31.10
2019-01-08T22:25:26.656Z,32.40
2019-01-08T22:27:57.211Z,28.93
2019-01-08T22:30:27.175Z,30.03
2019-01-08T22:32:57.497Z,30.37
2019-01-08T22:35:27.759Z,30.83
2019-01-08T22:37:57.869Z,31.13
2019-01-08T22:40:28.065Z,30.97
2019-01-08T22:42:58.309Z,31.07
2019-01-08T22:45:28.947Z,29.77
2019-01-08T22:47:59.350Z,31.13
2019-01-08T22:50:29.556Z,29.93
2019-01-08T22:52:59.728Z,31.63
2019-01-08T22:55:29.788Z,28.07
2019-01-08T22:58:02.694Z,31.50
2019-01-08T23:00:50.471Z,30.97
2019-01-08T23:03:21.880Z,30.27
2019-01-08T23:05:52.631Z,30.67
2019-01-08T23:08:23.241Z,30.03
2019-01-08T23:10:53.695Z,29.63
2019-01-08T23:13:23.826Z,31.33
2019-01-08T23:15:53.935Z,31.40
2019-01-08T23:18:24.054Z,30.23
2019-01-08T23:20:53.994Z,29.83
2019-01-08T23:23:25.054Z,30.00
2019-01-08T23:25:55.196Z,30.27
2019-01-08T23:28:25.342Z,30.53
2019-01-08T23:30:56.514Z,30.50
2019-01-08T23:33:26.589Z,32.13
2019-01-08T23:35:56.741Z,29.63
2019-01-08T23:38:26.965Z,29.47
2019-01-08T23:40:57.142Z,32.30
2019-01-08T23:43:27.355Z,33.30
2019-01-08T23:45:57.367Z,32.70
2019-01-08T23:48:27.498Z,34.67
2019-01-08T23:50:57.545Z,31.27
2019-01-08T23:53:36.030Z,30.00
2019-01-08T23:56:06.974Z,29.60
2019-01-08T23:58:37.448Z,32.27
